^^
Station Historical Data
 
Daily Summary for August 17, 2018 Units:  English    Metric   Both
« Previous Day
Next Day »
Daily Weekly Monthly Yearly Custom
  Current: High: Low: Average:
Temperature: 76.5 °F TemperatureF °F 50.5 °F 64.1 °F
Dew Point: 48.2 °F DewpointF °F 41.9 °F 45.9 °F
Humidity: 37 % Humidity % 32 % 54 %
Wind Speed: 0.9 mph WindSpeedMPH mph 0 mph 5.3 mph
Wind Gust: 4 mph WindSpeedGustMPH mph - -
Wind:NE - - SSE
Pressure: 29.96 in PressureIn in 29.96 in -
Precipitation: 0 in      
Historical Graphs
 
 
Tabular Data for August 17, 2018
Time Temperature Dew Point Pressure Wind Wind Speed Wind Gust Humidity Rainfall Rate (Hourly)
TemperatureF °F DewpointF °F PressureIn in Calm     Humidity % HourlyPrecipIn in
00:04 57.4 °F 47.7 °F 30.04 in WSW 8.1 mph 10 mph 70 % 0 in
00:09 57.4 °F 47.3 °F 30.04 in SSW 6 mph 9 mph 69 % 0 in
00:14 57.6 °F 46.8 °F 30.04 in SW 6.9 mph 8 mph 67 % 0 in
00:19 57.6 °F 47.1 °F 30.04 in SSW 4.9 mph 8 mph 68 % 0 in
00:24 57.4 °F 46.6 °F 30.04 in SW 8.1 mph 11 mph 67 % 0 in
00:29 57.6 °F 46.2 °F 30.04 in SW 6 mph 10 mph 66 % 0 in
00:34 57.6 °F 45.9 °F 30.04 in SSE 6 mph 7 mph 65 % 0 in
00:39 57.6 °F 45.9 °F 30.04 in SW 6 mph 8 mph 65 % 0 in
00:44 57.2 °F 46.4 °F 30.04 in West 4 mph 8 mph 67 % 0 in
00:49 56.3 °F 46.2 °F 30.04 in SSW 8.1 mph 10 mph 69 % 0 in
00:54 56.7 °F 46.6 °F 30.04 in SW 6 mph 11 mph 69 % 0 in
00:59 56.3 °F 46.9 °F 30.04 in South 10.1 mph 11 mph 71 % 0 in
01:04 55.9 °F 45.9 °F 30.04 in SSW 10.1 mph 11 mph 69 % 0 in
01:09 55.9 °F 45.1 °F 30.04 in SW 6 mph 9 mph 67 % 0 in
01:14 56.1 °F 45.7 °F 30.03 in SSW 6 mph 9 mph 68 % 0 in
01:19 55.8 °F 46 °F 30.04 in SSW 6 mph 11 mph 70 % 0 in
01:24 55.2 °F 45.7 °F 30.03 in SSE 8.1 mph 12 mph 70 % 0 in
01:29 55 °F 45.9 °F 30.04 in SSW 8.1 mph 11 mph 71 % 0 in
01:34 55.2 °F 45.1 °F 30.04 in SE 6 mph 10 mph 69 % 0 in
01:39 55.2 °F 44.8 °F 30.04 in SW 8.1 mph 8 mph 68 % 0 in
01:44 55.4 °F 45.3 °F 30.04 in South 6 mph 8 mph 69 % 0 in
01:49 55.6 °F 44.8 °F 30.04 in South 2.9 mph 7 mph 67 % 0 in
01:54 55.8 °F 45.3 °F 30.04 in SW 4.9 mph 6 mph 68 % 0 in
01:59 55.6 °F 45.1 °F 30.04 in WSW 6.9 mph 9 mph 68 % 0 in
02:04 55.6 °F 45.1 °F 30.04 in SW 6.9 mph 10 mph 68 % 0 in
02:09 54.9 °F 45 °F 30.04 in SSW 4 mph 7 mph 69 % 0 in
02:14 54.1 °F 45 °F 30.04 in SE 4.9 mph 7 mph 71 % 0 in
02:19 54.1 °F 44.6 °F 30.04 in South 4.9 mph 7 mph 70 % 0 in
02:24 54.3 °F 44.1 °F 30.04 in SSW 6 mph 8 mph 68 % 0 in
02:29 54.7 °F 43.9 °F 30.04 in SSW 4.9 mph 6 mph 67 % 0 in
02:34 54.7 °F 43.9 °F 30.04 in SSW 4 mph 8 mph 67 % 0 in
02:39 55.2 °F 44.1 °F 30.04 in SW 2.9 mph 5 mph 66 % 0 in
02:44 54.7 °F 45.1 °F 30.04 in SW 6.9 mph 9 mph 70 % 0 in
02:49 54 °F 45.1 °F 30.04 in WSW 6.9 mph 13 mph 72 % 0 in
02:54 53.8 °F 45.3 °F 30.04 in SW 10.1 mph 10 mph 73 % 0 in
02:59 53.8 °F 44.6 °F 30.04 in SSE 6 mph 7 mph 71 % 0 in
03:04 53.8 °F 44.6 °F 30.04 in WSW 2 mph 4 mph 71 % 0 in
03:09 54 °F 44.1 °F 30.04 in WSW 4 mph 5 mph 69 % 0 in
03:14 54.1 °F 43.9 °F 30.04 in SW 4.9 mph 6 mph 68 % 0 in
03:19 54.1 °F 43.9 °F 30.04 in SW 4.9 mph 5 mph 68 % 0 in
03:24 53.8 °F 44.2 °F 30.04 in SW 2 mph 4 mph 70 % 0 in
03:29 53.6 °F 44.1 °F 30.04 in SSE 4.9 mph 7 mph 70 % 0 in
03:34 53.6 °F 44.1 °F 30.04 in SW 4 mph 5 mph 70 % 0 in
03:39 53.4 °F 43.9 °F 30.04 in SSW 4 mph 7 mph 70 % 0 in
03:44 53.1 °F 43.5 °F 30.04 in SSE 2 mph 6 mph 70 % 0 in
03:49 52.9 °F 43.3 °F 30.04 in SSW 6.9 mph 11 mph 70 % 0 in
03:54 52.9 °F 43.3 °F 30.04 in SSW 8.1 mph 8 mph 70 % 0 in
03:59 53.4 °F 43.9 °F 30.04 in SW 6.9 mph 10 mph 70 % 0 in
04:04 54.1 °F 44.6 °F 30.04 in South 6 mph 8 mph 70 % 0 in
04:09 53.4 °F 44.2 °F 30.04 in SSW 6 mph 7 mph 71 % 0 in
04:14 53.2 °F 43.3 °F 30.04 in SSW 6.9 mph 9 mph 69 % 0 in
04:19 52.9 °F 43 °F 30.04 in South 4 mph 7 mph 69 % 0 in
04:24 52.9 °F 42.6 °F 30.04 in SSW 2.9 mph 8 mph 68 % 0 in
04:29 53.1 °F 43.2 °F 30.04 in SW 4.9 mph 9 mph 69 % 0 in
04:34 53.1 °F 43.2 °F 30.04 in SW 2 mph 6 mph 69 % 0 in
04:39 52.9 °F 42.6 °F 30.04 in WSW 2.9 mph 7 mph 68 % 0 in
04:44 52.3 °F 42.8 °F 30.04 in WSW 8.9 mph 9 mph 70 % 0 in
04:49 51.8 °F 43.7 °F 30.04 in WSW 6 mph 10 mph 74 % 0 in
04:54 52 °F 43.2 °F 30.04 in SW 6.9 mph 10 mph 72 % 0 in
04:59 52 °F 43.2 °F 30.04 in SSW 4 mph 9 mph 72 % 0 in
05:04 52 °F 43.2 °F 30.04 in SW 4.9 mph 9 mph 72 % 0 in
05:09 52.2 °F 43 °F 30.04 in SW 4.9 mph 6 mph 71 % 0 in
05:14 51.8 °F 42.6 °F 30.05 in SW 2 mph 6 mph 71 % 0 in
05:19 51.3 °F 42.6 °F 30.05 in SW 9 mph 9 mph 72 % 0 in
05:24 50.7 °F 42.4 °F 30.05 in SW 2.9 mph 6 mph 73 % 0 in
05:29 51.1 °F 42.4 °F 30.05 in WSW 4.9 mph 7 mph 72 % 0 in
05:34 51.6 °F 42.4 °F 30.05 in SW 4 mph 7 mph 71 % 0 in
05:39 51.8 °F 42.6 °F 30.05 in Calm   5 mph 71 % 0 in
05:44 51.6 °F 42.4 °F 30.05 in South 2.9 mph 7 mph 71 % 0 in
05:49 51.3 °F 42.3 °F 30.05 in SW 4.9 mph 9 mph 71 % 0 in
05:54 51.1 °F 42.4 °F 30.05 in SW 4.9 mph 7 mph 72 % 0 in
05:59 51.4 °F 42.8 °F 30.06 in SSW 6.9 mph 8 mph 72 % 0 in
06:04 51.6 °F 42.4 °F 30.05 in SSE 6 mph 8 mph 71 % 0 in
06:09 51.8 °F 42.6 °F 30.05 in SW 4.9 mph 9 mph 71 % 0 in
06:14 51.6 °F 42.4 °F 30.05 in South 6.9 mph 12 mph 71 % 0 in
06:19 51.1 °F 42.4 °F 30.06 in SW 8.1 mph 11 mph 72 % 0 in
06:24 50.7 °F 42.1 °F 30.06 in SSW 6.9 mph 11 mph 72 % 0 in
06:29 50.9 °F 42.6 °F 30.06 in WSW 8.1 mph 10 mph 73 % 0 in
06:34 50.7 °F 42.8 °F 30.06 in WSW 8.1 mph 9 mph 74 % 0 in
06:39 50.5 °F 41.9 °F 30.06 in South 4.9 mph 7 mph 72 % 0 in
06:44 50.5 °F 42.3 °F 30.06 in WSW 6.9 mph 8 mph 73 % 0 in
06:49 50.7 °F 42.4 °F 30.06 in WSW 4.9 mph 8 mph 73 % 0 in
06:54 51.3 °F 42.6 °F 30.06 in WSW 6 mph 8 mph 72 % 0 in
06:59 51.6 °F 42.4 °F 30.06 in SW 4 mph 7 mph 71 % 0 in
07:04 51.6 °F 42.1 °F 30.06 in SW 8.1 mph 8 mph 70 % 0 in
07:09 52 °F 42.4 °F 30.07 in SW 4.9 mph 9 mph 70 % 0 in
07:14 52.7 °F 42.8 °F 30.07 in SW 6.9 mph 8 mph 69 % 0 in
07:19 53.6 °F 43.3 °F 30.06 in SW 6.9 mph 8 mph 68 % 0 in
07:24 53.4 °F 43.2 °F 30.06 in SSW 2.9 mph 11 mph 68 % 0 in
07:29 54 °F 43.7 °F 30.06 in SW 6.9 mph 8 mph 68 % 0 in
07:34 54.9 °F 43.3 °F 30.06 in SW 4.9 mph 8 mph 65 % 0 in
07:39 55.6 °F 43.5 °F 30.06 in SSW 6 mph 8 mph 64 % 0 in
07:44 56.5 °F 43.7 °F 30.06 in SE 4 mph 7 mph 62 % 0 in
07:49 57.2 °F 43.5 °F 30.06 in SW 2 mph 8 mph 60 % 0 in
07:54 57.7 °F 43.5 °F 30.06 in SSE 2 mph 6 mph 59 % 0 in
07:59 58.3 °F 44.1 °F 30.06 in WSW 2 mph 4 mph 59 % 0 in
08:04 58.6 °F 44.4 °F 30.06 in SSW 2.9 mph 5 mph 59 % 0 in
08:09 58.6 °F 44.8 °F 30.06 in SSW 4 mph 7 mph 60 % 0 in
08:14 58.6 °F 44.4 °F 30.06 in SSW 4.9 mph 7 mph 59 % 0 in
08:19 58.8 °F 44.6 °F 30.06 in SW 4 mph 6 mph 59 % 0 in
08:24 59.4 °F 44.6 °F 30.06 in WSW 2.9 mph 5 mph 58 % 0 in
08:29 59.9 °F 45.1 °F 30.06 in South 4.9 mph 6 mph 58 % 0 in
08:34 61 °F 45.7 °F 30.06 in SSE 4 mph 5 mph 57 % 0 in
08:39 61.5 °F 45.1 °F 30.06 in South 6 mph 7 mph 55 % 0 in
08:44 62.6 °F 45.1 °F 30.05 in SSE 2 mph 5 mph 53 % 0 in
08:49 63.3 °F 45.3 °F 30.05 in South 0.9 mph 4 mph 52 % 0 in
08:54 64.6 °F 45.5 °F 30.05 in Calm   3 mph 50 % 0 in
08:59 65.7 °F 46 °F 30.05 in West 2 mph 2 mph 49 % 0 in
09:04 66.2 °F 46.4 °F 30.05 in Calm     49 % 0 in
09:09 66.9 °F 46.6 °F 30.05 in Calm   1 mph 48 % 0 in
09:14 67.8 °F 46.9 °F 30.05 in Calm   1 mph 47 % 0 in
09:19 69.6 °F 47.3 °F 30.05 in NNE 2.9 mph 3 mph 45 % 0 in
09:24 70.5 °F 47.5 °F 30.05 in NE 2 mph 3 mph 44 % 0 in
09:29 71.4 °F 47.1 °F 30.04 in Calm   3 mph 42 % 0 in
09:34 72.1 °F 46.4 °F 30.04 in ENE 0.9 mph 4 mph 40 % 0 in
09:39 73 °F 47.3 °F 30.04 in ENE 4.9 mph 6 mph 40 % 0 in
09:44 72.9 °F 45.7 °F 30.04 in ENE 2.9 mph 8 mph 38 % 0 in
09:49 72.7 °F 45 °F 30.04 in ENE 6 mph 8 mph 37 % 0 in
09:54 72.7 °F 45.7 °F 30.04 in ENE 6.9 mph 10 mph 38 % 0 in
09:59 73.2 °F 46 °F 30.04 in NE 6.9 mph 7 mph 38 % 0 in
10:04 73.2 °F 46 °F 30.04 in NE 2 mph 10 mph 38 % 0 in
10:09 73.8 °F 47.3 °F 30.04 in East 4.9 mph 9 mph 39 % 0 in
10:14 73.6 °F 46.4 °F 30.04 in NNE 6.9 mph 8 mph 38 % 0 in
10:19 73.8 °F 48 °F 30.04 in NE 6 mph 9 mph 40 % 0 in
10:24 74.5 °F 47.1 °F 30.04 in ENE 4.9 mph 8 mph 38 % 0 in
10:29 74.5 °F 47.8 °F 30.04 in NNE 4 mph 7 mph 39 % 0 in
10:34 75 °F 49.1 °F 30.04 in NE 4 mph 9 mph 40 % 0 in
10:39 75.4 °F 48.7 °F 30.04 in NE 4 mph 8 mph 39 % 0 in
10:44 75.4 °F 48 °F 30.04 in ENE 4.9 mph 9 mph 38 % 0 in
10:49 75.6 °F 48.2 °F 30.04 in NE 6.9 mph 7 mph 38 % 0 in
10:54 75.9 °F 49.8 °F 30.04 in NE 11 mph 13 mph 40 % 0 in
10:59 75.6 °F 48.2 °F 30.03 in ENE 4 mph 10 mph 38 % 0 in
11:04 76.6 °F 49.1 °F 30.03 in ENE 8.1 mph 15 mph 38 % 0 in
11:09 76.5 °F 48.9 °F 30.03 in NE 10.1 mph 10 mph 38 % 0 in
11:14 76.6 °F 49.8 °F 30.03 in ENE 11 mph 15 mph 39 % 0 in
11:19 76.8 °F 50 °F 30.03 in ENE 10.1 mph 18 mph 39 % 0 in
11:24 75.6 °F 48.9 °F 30.03 in ENE 6.9 mph 14 mph 39 % 0 in
11:29 75.7 °F 49.1 °F 30.03 in ENE 8.9 mph 18 mph 39 % 0 in
11:34 75.6 °F 49.5 °F 30.03 in ENE 11 mph 17 mph 40 % 0 in
11:39 75.4 °F 49.5 °F 30.02 in ENE 6 mph 18 mph 40 % 0 in
11:44 75.4 °F 49.5 °F 30.02 in ENE 10.1 mph 16 mph 40 % 0 in
11:49 75.7 °F 49.1 °F 30.02 in ENE 11 mph 11 mph 39 % 0 in
11:54 75.6 °F 48.2 °F 30.02 in ENE 10.1 mph 16 mph 38 % 0 in
11:59 75.6 °F 46.8 °F 30.02 in ESE 6.9 mph 15 mph 36 % 0 in
12:04 75.9 °F 49.1 °F 30.02 in ENE 8.1 mph 14 mph 39 % 0 in
12:09 75.7 °F 48.4 °F 30.02 in ENE 11 mph 16 mph 38 % 0 in
12:14 75.4 °F 50 °F 30.01 in ENE 6.9 mph 15 mph 41 % 0 in
12:19 76.3 °F 50.2 °F 30.01 in ENE 4 mph 13 mph 40 % 0 in
12:24 76.6 °F 49.1 °F 30.01 in ENE 14.1 mph 19 mph 38 % 0 in
12:29 75.9 °F 49.8 °F 30.02 in NE 10.1 mph 15 mph 40 % 0 in
12:34 75.2 °F 48.6 °F 30.02 in ESE 14.1 mph 22 mph 39 % 0 in
12:39 74.7 °F 48 °F 30.02 in NE 10.1 mph 15 mph 39 % 0 in
12:44 73.9 °F 46.8 °F 30.02 in NE 10.1 mph 22 mph 38 % 0 in
12:49 73.9 °F 48 °F 30.02 in ENE 13 mph 15 mph 40 % 0 in
12:54 73.8 °F 48 °F 30.02 in ENE 8.9 mph 17 mph 40 % 0 in
12:59 73.6 °F 48.4 °F 30.02 in NE 10.1 mph 12 mph 41 % 0 in
13:04 73 °F 48.6 °F 30.03 in NE 4.9 mph 11 mph 42 % 0 in
13:09 73 °F 49.3 °F 30.03 in ENE 6.9 mph 11 mph 43 % 0 in
13:14 73 °F 49.8 °F 30.03 in Calm   2 mph 44 % 0 in
13:19 72.9 °F 49.6 °F 30.03 in ENE 4 mph 8 mph 44 % 0 in
13:24 72.7 °F 49.5 °F 30.03 in ENE 0.9 mph 5 mph 44 % 0 in
13:29 72.9 °F 49.6 °F 30.03 in Calm   2 mph 44 % 0 in
13:34 73.2 °F 50 °F 30.03 in Calm   4 mph 44 % 0 in
13:39 73 °F 50.4 °F 30.03 in Calm   1 mph 45 % 0 in
13:44 73.2 °F 50 °F 30.03 in NNE 4 mph 5 mph 44 % 0 in
13:49 72.7 °F 48.9 °F 30.03 in NE 4 mph 7 mph 43 % 0 in
13:54 72.7 °F 48.2 °F 30.02 in Calm   4 mph 42 % 0 in
13:59 73 °F 49.3 °F 30.01 in WSW 4.9 mph 5 mph 43 % 0 in
14:04 73.2 °F 49.5 °F 30.01 in SSE 4 mph 8 mph 43 % 0 in
14:09 73.9 °F 49.5 °F 30.01 in SE 4 mph 12 mph 42 % 0 in
14:14 74.5 °F 49.3 °F 30.01 in SSE 2.9 mph 7 mph 41 % 0 in
14:19 75.4 °F 49.5 °F 30.01 in Calm   6 mph 40 % 0 in
14:24 75.7 °F 49.1 °F 30.00 in WSW 0.9 mph 9 mph 39 % 0 in
14:29 77.2 °F 49.6 °F 30.00 in SSE 0.9 mph 4 mph 38 % 0 in
14:34 79.3 °F 48.6 °F 30.00 in NNW 6 mph 9 mph 34 % 0 in
14:39 78.3 °F 48.4 °F 30.00 in SW 2 mph 4 mph 35 % 0 in
14:44 78.3 °F 47.7 °F 30.00 in NW 4 mph 7 mph 34 % 0 in
14:49 77.7 °F 47.1 °F 30.00 in NNW 4.9 mph 7 mph 34 % 0 in
14:54 78.1 °F 45.9 °F 29.99 in NNW 0.9 mph 1 mph 32 % 0 in
14:59 77.9 °F 46.4 °F 30.00 in NNW 2 mph 4 mph 33 % 0 in
15:04 77.4 °F 46 °F 30.00 in NNW 0.9 mph 4 mph 33 % 0 in
15:09 77.2 °F 45.9 °F 30.00 in North 2 mph 4 mph 33 % 0 in
15:14 77.4 °F 45.1 °F 30.00 in ENE 2 mph 5 mph 32 % 0 in
15:19 77.5 °F 45.3 °F 30.00 in NE 4.9 mph 9 mph 32 % 0 in
15:24 77 °F 48.7 °F 30.00 in East 6 mph 11 mph 37 % 0 in
15:29 76.3 °F 49.5 °F 30.00 in NE 8.9 mph 14 mph 39 % 0 in
15:34 75.7 °F 49.1 °F 30.00 in East 6.9 mph 9 mph 39 % 0 in
15:39 75.6 °F 48.9 °F 30.00 in ENE 8.1 mph 10 mph 39 % 0 in
15:44 75 °F 49.1 °F 30.00 in NE 6 mph 6 mph 40 % 0 in
15:49 75.6 °F 49.5 °F 29.99 in NNE 8.9 mph 12 mph 40 % 0 in
15:54 75.4 °F 49.5 °F 29.99 in ENE 6 mph 7 mph 40 % 0 in
15:59 75.4 °F 49.5 °F 29.99 in NNE 4 mph 6 mph 40 % 0 in
16:04 75.7 °F 49.6 °F 29.98 in NE 6 mph 7 mph 40 % 0 in
16:09 75.6 °F 49.5 °F 29.98 in NE 4.9 mph 9 mph 40 % 0 in
16:14 75.7 °F 50.4 °F 29.98 in North 2 mph 5 mph 41 % 0 in
16:19 75.7 °F 49.1 °F 29.98 in ENE 4 mph 10 mph 39 % 0 in
16:24 76.1 °F 48 °F 29.98 in ENE 10.1 mph 12 mph 37 % 0 in
16:29 75.7 °F 46.9 °F 29.98 in East 8.1 mph 9 mph 36 % 0 in
16:34 76.5 °F 47.5 °F 29.98 in East 2.9 mph 9 mph 36 % 0 in
16:39 77.5 °F 48.6 °F 29.98 in WNW 2 mph 9 mph 36 % 0 in
16:44 78.1 °F 48.2 °F 29.97 in WNW 6.9 mph 7 mph 35 % 0 in
16:49 77.7 °F 48.6 °F 29.97 in North 8.9 mph 9 mph 36 % 0 in
16:54 77.2 °F 48.2 °F 29.97 in ENE 6 mph 6 mph 36 % 0 in
16:59 76.5 °F 47.5 °F 29.96 in ENE 11 mph 12 mph 36 % 0 in
17:04 76.1 °F 48 °F 29.96 in ENE 6 mph 10 mph 37 % 0 in
17:09 75.9 °F 47.8 °F 29.96 in ENE 2.9 mph 6 mph 37 % 0 in
17:14 76.3 °F 48 °F 29.96 in NE 4 mph 9 mph 37 % 0 in
17:19 76.5 °F 48.2 °F 29.96 in NE 0.9 mph 4 mph 37 % 0 in
Evergreen Colorado, USA
Compliments of Weather Underground - 3 mb